createdAt,value
2018-07-20T00:01:24.503Z,14.85
2018-07-20T00:03:53.908Z,14.82
2018-07-20T00:06:23.364Z,14.83
2018-07-20T00:08:52.728Z,14.71
2018-07-20T00:11:22.026Z,14.62
2018-07-20T00:13:51.739Z,14.62
2018-07-20T00:16:21.367Z,14.53
2018-07-20T00:18:50.907Z,14.52
2018-07-20T00:21:20.372Z,14.41
2018-07-20T00:23:49.882Z,14.51
2018-07-20T00:26:19.203Z,14.54
2018-07-20T00:28:48.995Z,14.42
2018-07-20T00:31:18.903Z,14.51
2018-07-20T00:33:48.151Z,14.37
2018-07-20T00:36:17.435Z,14.41
2018-07-20T00:38:46.712Z,14.28
2018-07-20T00:41:16.251Z,14.36
2018-07-20T00:43:45.713Z,14.32
2018-07-20T00:46:15.084Z,14.40
2018-07-20T00:48:44.315Z,14.46
2018-07-20T00:51:13.781Z,14.38
2018-07-20T00:53:43.306Z,14.27
2018-07-20T00:56:13.963Z,14.23
2018-07-20T00:58:43.284Z,14.24
2018-07-20T01:01:12.745Z,14.10
2018-07-20T01:03:42.222Z,14.14
2018-07-20T01:06:11.522Z,14.04
2018-07-20T01:08:41.030Z,13.97
2018-07-20T01:11:10.346Z,13.92
2018-07-20T01:13:39.776Z,13.62
2018-07-20T01:16:09.082Z,13.64
2018-07-20T01:18:38.304Z,13.66
2018-07-20T01:21:08.049Z,13.60
2018-07-20T01:23:37.379Z,13.66
2018-07-20T01:26:06.726Z,13.66
2018-07-20T01:28:36.224Z,13.63
2018-07-20T01:31:05.718Z,13.71
2018-07-20T01:33:34.978Z,13.73
2018-07-20T01:36:04.269Z,13.74
2018-07-20T01:38:33.606Z,13.72
2018-07-20T01:41:02.844Z,13.62
2018-07-20T01:43:32.146Z,13.54
2018-07-20T01:46:02.085Z,13.55
2018-07-20T01:48:31.369Z,13.60
2018-07-20T01:51:00.644Z,13.69
2018-07-20T01:53:30.030Z,13.63
2018-07-20T01:55:59.361Z,13.62
2018-07-20T01:58:28.779Z,13.58
2018-07-20T02:00:58.056Z,13.50
2018-07-20T02:03:27.471Z,13.49
2018-07-20T02:05:56.878Z,13.58
2018-07-20T02:08:26.206Z,13.47
2018-07-20T02:11:00.652Z,13.53
2018-07-20T02:13:30.251Z,13.51
2018-07-20T02:15:59.721Z,13.53
2018-07-20T02:18:29.114Z,13.49
2018-07-20T02:20:58.676Z,13.50
2018-07-20T02:23:28.115Z,13.41
2018-07-20T02:25:57.409Z,13.29
2018-07-20T02:28:26.673Z,13.32
2018-07-20T02:30:56.052Z,13.27
2018-07-20T02:33:25.246Z,13.36
2018-07-20T02:35:54.908Z,13.34
2018-07-20T02:38:24.213Z,13.34
2018-07-20T02:40:53.475Z,13.32
2018-07-20T02:43:22.855Z,13.25
2018-07-20T02:45:52.264Z,13.32
2018-07-20T02:48:21.506Z,13.10
2018-07-20T02:50:50.740Z,13.10
2018-07-20T02:53:20.132Z,13.08
2018-07-20T02:55:49.318Z,13.13
2018-07-20T02:58:19.573Z,13.09
2018-07-20T03:00:48.962Z,13.07
2018-07-20T03:03:18.502Z,13.13
2018-07-20T03:05:47.915Z,13.12
2018-07-20T03:08:17.271Z,13.09
2018-07-20T03:10:46.853Z,12.97
2018-07-20T03:13:16.799Z,12.86
2018-07-20T03:15:46.300Z,13.02
2018-07-20T03:18:15.800Z,12.97
2018-07-20T03:20:45.051Z,12.95
2018-07-20T03:23:14.409Z,12.97
2018-07-20T03:25:43.892Z,12.89
2018-07-20T03:28:13.363Z,12.89
2018-07-20T03:30:42.850Z,12.97
2018-07-20T03:33:12.130Z,12.87
2018-07-20T03:35:41.480Z,12.88
2018-07-20T03:38:10.762Z,12.78
2018-07-20T03:40:40.058Z,12.82
2018-07-20T03:43:09.717Z,12.80
2018-07-20T03:45:39.111Z,12.74
2018-07-20T03:48:08.628Z,12.83
2018-07-20T03:50:38.592Z,12.81
2018-07-20T03:53:07.894Z,12.78
2018-07-20T03:55:37.465Z,12.87
2018-07-20T03:58:06.808Z,12.72
2018-07-20T04:00:36.195Z,12.71
2018-07-20T04:03:05.751Z,12.68
2018-07-20T04:05:34.960Z,12.84
2018-07-20T04:08:04.328Z,12.73
2018-07-20T04:10:33.862Z,12.77
2018-07-20T04:13:03.294Z,12.80
2018-07-20T04:15:32.698Z,12.86
2018-07-20T04:18:02.102Z,12.83
2018-07-20T04:20:31.536Z,12.82
2018-07-20T04:23:00.830Z,12.77
2018-07-20T04:25:30.454Z,12.85
2018-07-20T04:27:59.767Z,12.80
2018-07-20T04:30:29.029Z,12.81
2018-07-20T04:32:58.356Z,12.82
2018-07-20T04:35:27.954Z,12.85
2018-07-20T04:37:57.392Z,12.90
2018-07-20T04:40:26.571Z,12.90
2018-07-20T04:42:55.867Z,12.97
2018-07-20T04:45:25.244Z,13.00
2018-07-20T04:47:55.241Z,12.94
2018-07-20T04:50:24.690Z,12.88
2018-07-20T04:52:53.923Z,12.96
2018-07-20T04:55:23.310Z,12.99
2018-07-20T04:57:52.584Z,13.33
2018-07-20T05:00:21.888Z,13.69
2018-07-20T05:02:51.276Z,13.93
2018-07-20T05:05:20.768Z,14.00
2018-07-20T05:07:50.263Z,14.25
2018-07-20T05:10:19.718Z,14.53
2018-07-20T05:12:49.211Z,14.74
2018-07-20T05:15:18.444Z,14.93
2018-07-20T05:17:47.933Z,15.08
2018-07-20T05:20:17.540Z,15.40
2018-07-20T05:22:46.891Z,15.67
2018-07-20T05:25:16.233Z,15.81
2018-07-20T05:27:45.694Z,15.95
2018-07-20T05:30:15.034Z,16.30
2018-07-20T05:32:44.417Z,16.37
2018-07-20T05:35:13.910Z,16.52
2018-07-20T05:37:43.493Z,16.53
2018-07-20T05:40:12.856Z,16.57
2018-07-20T05:42:42.159Z,16.76
2018-07-20T05:45:12.443Z,16.81
2018-07-20T05:47:41.749Z,16.93
2018-07-20T05:50:11.105Z,17.25
2018-07-20T05:52:40.358Z,17.34
2018-07-20T05:55:09.832Z,17.46
2018-07-20T05:57:39.256Z,17.41
2018-07-20T06:00:08.722Z,17.52
2018-07-20T06:02:39.764Z,17.18
2018-07-20T06:05:10.213Z,17.73
2018-07-20T06:07:39.738Z,17.84
2018-07-20T06:10:09.335Z,17.52
2018-07-20T06:12:40.309Z,18.11
2018-07-20T06:15:10.498Z,18.02
2018-07-20T06:17:40.220Z,17.48
2018-07-20T06:20:11.069Z,17.42
2018-07-20T06:22:40.976Z,17.36
2018-07-20T06:25:10.476Z,17.68
2018-07-20T06:27:39.887Z,18.54
2018-07-20T06:30:09.436Z,18.44
2018-07-20T06:32:39.086Z,19.02
2018-07-20T06:35:08.590Z,18.49
2018-07-20T06:37:38.038Z,18.47
2018-07-20T06:40:07.274Z,18.25
2018-07-20T06:42:36.610Z,19.06
2018-07-20T06:45:06.370Z,19.58
2018-07-20T06:47:36.101Z,19.37
2018-07-20T06:50:10.617Z,19.50
2018-07-20T06:52:40.261Z,19.11
2018-07-20T06:55:09.794Z,19.13
2018-07-20T06:57:39.346Z,19.25
2018-07-20T07:00:09.334Z,19.38
2018-07-20T07:02:38.653Z,19.23
2018-07-20T07:05:09.518Z,19.61
2018-07-20T07:07:38.979Z,19.98
2018-07-20T07:10:09.261Z,19.84
2018-07-20T07:12:38.684Z,20.65
2018-07-20T07:15:07.987Z,20.50
2018-07-20T07:17:37.280Z,20.22
2018-07-20T07:20:06.602Z,20.44
2018-07-20T07:22:35.822Z,20.59
2018-07-20T07:25:05.593Z,21.05
2018-07-20T07:27:35.481Z,21.02
2018-07-20T07:30:05.617Z,21.78
2018-07-20T07:32:34.801Z,21.71
2018-07-20T07:35:04.481Z,21.12
2018-07-20T07:37:34.303Z,20.48
2018-07-20T07:40:04.516Z,21.08
2018-07-20T07:42:33.953Z,21.45
2018-07-20T07:45:03.294Z,21.80
2018-07-20T07:47:32.892Z,21.45
2018-07-20T07:50:02.417Z,21.63
2018-07-20T07:52:31.826Z,21.74
2018-07-20T07:55:01.640Z,21.05
2018-07-20T07:57:30.981Z,21.90
2018-07-20T08:00:00.352Z,22.46
2018-07-20T08:02:29.605Z,22.64
2018-07-20T08:04:58.850Z,22.23
2018-07-20T08:07:28.184Z,22.75
2018-07-20T08:09:58.030Z,23.12
2018-07-20T08:12:27.437Z,22.61
2018-07-20T08:14:56.687Z,22.23
2018-07-20T08:17:26.212Z,22.19
2018-07-20T08:19:55.587Z,22.51
2018-07-20T08:22:24.706Z,23.04
2018-07-20T08:24:54.323Z,23.20
2018-07-20T08:27:23.699Z,22.65
2018-07-20T08:29:53.192Z,22.84
2018-07-20T08:32:22.396Z,23.57
2018-07-20T08:34:51.770Z,23.45
2018-07-20T08:37:21.226Z,23.37
2018-07-20T08:39:50.811Z,23.66
2018-07-20T08:42:20.301Z,23.78
2018-07-20T08:44:49.846Z,23.74
2018-07-20T08:47:19.202Z,23.81
2018-07-20T08:49:49.402Z,24.28
2018-07-20T08:52:18.804Z,24.51
2018-07-20T08:54:48.195Z,24.13
2018-07-20T08:57:17.583Z,24.28
2018-07-20T08:59:47.473Z,24.02
2018-07-20T09:02:16.698Z,24.30
2018-07-20T09:04:46.029Z,24.29
2018-07-20T09:07:15.447Z,24.74
2018-07-20T09:09:45.559Z,24.28
2018-07-20T09:12:14.933Z,24.72
2018-07-20T09:14:44.255Z,24.35
2018-07-20T09:17:13.648Z,24.79
2018-07-20T09:19:43.209Z,25.06
2018-07-20T09:22:12.576Z,25.00
2018-07-20T09:24:42.504Z,25.34
2018-07-20T09:27:11.870Z,25.60
2018-07-20T09:29:41.486Z,25.35
2018-07-20T09:32:10.982Z,25.56
2018-07-20T09:34:40.664Z,25.43
2018-07-20T09:37:10.537Z,25.72
2018-07-20T09:39:41.035Z,25.52
2018-07-20T09:42:11.118Z,25.69
2018-07-20T09:44:41.393Z,25.72
2018-07-20T09:47:10.781Z,25.46
2018-07-20T09:49:42.173Z,25.95
2018-07-20T09:52:11.489Z,26.10
2018-07-20T09:54:40.940Z,26.31
2018-07-20T09:57:10.375Z,25.79
2018-07-20T09:59:39.874Z,26.12
2018-07-20T10:02:10.055Z,26.24
2018-07-20T10:04:39.485Z,26.69
2018-07-20T10:07:08.987Z,26.97
2018-07-20T10:09:38.478Z,26.75
2018-07-20T10:12:07.815Z,26.38
2018-07-20T10:14:37.272Z,26.61
2018-07-20T10:17:07.213Z,27.15
2018-07-20T10:19:36.618Z,26.99
2018-07-20T10:22:06.505Z,26.68
2018-07-20T10:24:36.026Z,27.12
2018-07-20T10:27:05.375Z,27.21
2018-07-20T10:29:34.657Z,27.44
2018-07-20T10:32:03.951Z,27.46
2018-07-20T10:34:33.358Z,27.62
2018-07-20T10:37:02.588Z,27.83
2018-07-20T10:39:31.972Z,28.26
2018-07-20T10:42:01.179Z,28.42
2018-07-20T10:44:30.881Z,28.48
2018-07-20T10:47:00.599Z,28.48
2018-07-20T10:49:29.989Z,28.85
2018-07-20T10:51:59.379Z,28.98
2018-07-20T10:54:28.844Z,28.65
2018-07-20T10:56:58.376Z,28.59
2018-07-20T10:59:27.719Z,28.51
2018-07-20T11:01:57.158Z,28.03
2018-07-20T11:04:26.537Z,28.36
2018-07-20T11:06:55.838Z,28.54
2018-07-20T11:09:25.018Z,28.85
2018-07-20T11:11:54.407Z,28.50
2018-07-20T11:14:23.810Z,27.79
2018-07-20T11:16:53.779Z,28.22
2018-07-20T11:19:23.237Z,28.57
2018-07-20T11:21:52.590Z,28.63
2018-07-20T11:24:23.205Z,28.89
2018-07-20T11:26:52.698Z,28.51
2018-07-20T11:29:22.141Z,28.43
2018-07-20T11:31:52.782Z,29.04
2018-07-20T11:34:22.227Z,29.08
2018-07-20T11:36:51.517Z,28.66
2018-07-20T11:39:20.751Z,29.00
2018-07-20T11:41:51.531Z,28.99
2018-07-20T11:44:20.906Z,29.04
2018-07-20T11:46:50.998Z,29.13
2018-07-20T11:49:20.327Z,28.32
2018-07-20T11:51:49.754Z,28.41
2018-07-20T11:54:20.318Z,28.92
2018-07-20T11:56:49.792Z,29.14
2018-07-20T11:59:19.338Z,28.95
2018-07-20T12:01:49.776Z,29.51
2018-07-20T12:04:19.148Z,29.77
2018-07-20T12:06:48.722Z,30.05
2018-07-20T12:09:18.132Z,29.36
2018-07-20T12:11:47.576Z,29.13
2018-07-20T12:14:16.930Z,29.27
2018-07-20T12:16:46.006Z,29.76
2018-07-20T12:19:15.246Z,29.72
2018-07-20T12:21:44.673Z,30.01
2018-07-20T12:24:14.234Z,30.23
2018-07-20T12:26:43.658Z,29.75
2018-07-20T12:29:12.830Z,29.94
2018-07-20T12:31:41.851Z,30.25
2018-07-20T12:34:10.931Z,30.50
2018-07-20T12:36:40.914Z,30.12
2018-07-20T12:39:11.570Z,30.22
2018-07-20T12:41:41.447Z,30.41
2018-07-20T12:44:10.918Z,30.42
2018-07-20T12:46:40.235Z,30.41
2018-07-20T12:49:09.849Z,30.27
2018-07-20T12:51:39.583Z,30.43
2018-07-20T12:54:09.121Z,30.59
2018-07-20T12:56:38.728Z,30.67
2018-07-20T12:59:08.118Z,30.56
2018-07-20T13:01:37.483Z,30.16
2018-07-20T13:04:06.931Z,29.98
2018-07-20T13:06:36.729Z,29.65
2018-07-20T13:09:08.521Z,30.02
2018-07-20T13:11:38.037Z,29.98
2018-07-20T13:14:07.425Z,29.58
2018-07-20T13:16:36.912Z,29.52
2018-07-20T13:19:06.528Z,29.86
2018-07-20T13:21:35.841Z,30.05
2018-07-20T13:24:05.976Z,30.29
2018-07-20T13:26:35.388Z,29.98
2018-07-20T13:29:05.200Z,29.86
2018-07-20T13:31:34.473Z,29.46
2018-07-20T13:34:04.677Z,29.11
2018-07-20T13:36:34.316Z,29.06
2018-07-20T13:39:03.943Z,28.84
2018-07-20T13:41:33.234Z,28.76
2018-07-20T13:44:02.524Z,28.94
2018-07-20T13:46:33.002Z,28.99
2018-07-20T13:49:02.637Z,29.40
2018-07-20T13:51:32.089Z,29.66
2018-07-20T13:54:01.546Z,29.90
2018-07-20T13:56:31.217Z,29.81
2018-07-20T13:59:00.458Z,30.32
2018-07-20T14:01:29.790Z,29.94
2018-07-20T14:03:59.239Z,29.75
2018-07-20T14:06:28.666Z,30.11
2018-07-20T14:08:58.134Z,29.51
2018-07-20T14:11:27.502Z,29.39
2018-07-20T14:13:58.295Z,29.33
2018-07-20T14:16:27.813Z,29.25
2018-07-20T14:18:58.039Z,28.97
2018-07-20T14:21:28.655Z,28.83
2018-07-20T14:23:58.520Z,29.21
2018-07-20T14:26:27.904Z,29.59
2018-07-20T14:28:57.317Z,29.70
2018-07-20T14:31:27.963Z,29.58
2018-07-20T14:33:57.539Z,29.40
2018-07-20T14:36:26.989Z,29.88
2018-07-20T14:38:56.504Z,29.79
2018-07-20T14:41:26.035Z,30.02
2018-07-20T14:43:55.527Z,29.72
2018-07-20T14:46:24.836Z,29.59
2018-07-20T14:48:54.282Z,29.41
2018-07-20T14:51:23.917Z,29.77
2018-07-20T14:53:53.149Z,29.72
2018-07-20T14:56:22.817Z,29.81
2018-07-20T14:58:52.229Z,29.11
2018-07-20T15:01:22.198Z,28.86
2018-07-20T15:03:51.936Z,28.70
2018-07-20T15:06:22.100Z,28.87
2018-07-20T15:08:51.581Z,28.64
2018-07-20T15:11:20.959Z,28.39
2018-07-20T15:13:50.288Z,28.64
2018-07-20T15:16:19.758Z,28.67
2018-07-20T15:18:49.225Z,28.75
2018-07-20T15:21:19.006Z,28.51
2018-07-20T15:23:48.438Z,28.35
2018-07-20T15:26:17.902Z,28.32
2018-07-20T15:28:47.308Z,28.10
2018-07-20T15:31:16.754Z,28.20
2018-07-20T15:33:46.244Z,28.16
2018-07-20T15:36:16.175Z,28.24
2018-07-20T15:38:45.717Z,28.10
2018-07-20T15:41:15.272Z,27.91
2018-07-20T15:43:44.891Z,27.90
2018-07-20T15:46:14.527Z,27.76
2018-07-20T15:48:44.289Z,27.61
2018-07-20T15:51:13.558Z,27.50
2018-07-20T15:53:43.076Z,27.26
2018-07-20T15:56:12.836Z,27.12
2018-07-20T15:58:42.279Z,27.20
2018-07-20T16:01:12.612Z,27.20
2018-07-20T16:03:42.197Z,27.38
2018-07-20T16:06:11.575Z,27.16
2018-07-20T16:08:40.945Z,26.91
2018-07-20T16:11:10.743Z,26.66
2018-07-20T16:13:40.192Z,26.43
2018-07-20T16:16:09.541Z,26.44
2018-07-20T16:18:38.828Z,26.30
2018-07-20T16:21:08.275Z,26.22
2018-07-20T16:23:37.759Z,26.19
2018-07-20T16:26:08.128Z,26.05
2018-07-20T16:28:37.382Z,25.98
2018-07-20T16:31:07.791Z,26.02
2018-07-20T16:33:37.132Z,25.93
2018-07-20T16:36:06.399Z,25.71
2018-07-20T16:38:35.734Z,25.73
2018-07-20T16:41:05.202Z,25.58
2018-07-20T16:43:34.703Z,25.38
2018-07-20T16:46:04.082Z,25.39
2018-07-20T16:48:34.307Z,25.35
2018-07-20T16:51:03.573Z,25.29
2018-07-20T16:53:33.064Z,25.23
2018-07-20T16:56:02.464Z,25.09
2018-07-20T16:58:31.646Z,25.05
2018-07-20T17:01:01.009Z,25.03
2018-07-20T17:03:30.211Z,24.87
2018-07-20T17:05:59.315Z,24.76
2018-07-20T17:08:28.598Z,24.74
2018-07-20T17:10:58.185Z,24.73
2018-07-20T17:13:28.398Z,24.62
2018-07-20T17:16:00.141Z,24.65
2018-07-20T17:18:30.091Z,24.59
2018-07-20T17:20:59.870Z,24.49
2018-07-20T17:23:29.227Z,24.56
2018-07-20T17:25:58.782Z,24.39
2018-07-20T17:28:28.143Z,24.21
2018-07-20T17:30:58.411Z,23.93
2018-07-20T17:33:27.801Z,23.87
2018-07-20T17:35:59.929Z,23.90
2018-07-20T17:38:30.313Z,23.79
2018-07-20T17:41:02.857Z,23.94
2018-07-20T17:43:33.291Z,23.90
2018-07-20T17:46:03.720Z,23.79
2018-07-20T17:48:34.499Z,23.50
2018-07-20T17:51:04.228Z,23.56
2018-07-20T17:53:33.457Z,23.58
2018-07-20T17:56:02.885Z,23.59
2018-07-20T17:58:32.287Z,23.51
2018-07-20T18:01:02.181Z,23.35
2018-07-20T18:03:32.330Z,23.14
2018-07-20T18:06:01.806Z,23.10
2018-07-20T18:08:31.386Z,23.09
2018-07-20T18:11:00.916Z,23.06
2018-07-20T18:13:30.547Z,23.03
2018-07-20T18:16:00.597Z,22.98
2018-07-20T18:18:30.271Z,22.85
2018-07-20T18:20:59.848Z,22.84
2018-07-20T18:23:29.945Z,22.84
2018-07-20T18:25:59.731Z,22.73
2018-07-20T18:28:29.685Z,22.77
2018-07-20T18:30:59.352Z,22.64
2018-07-20T18:33:29.215Z,22.48
2018-07-20T18:36:00.069Z,22.38
2018-07-20T18:38:34.068Z,22.41
2018-07-20T18:41:03.782Z,22.35
2018-07-20T18:43:33.867Z,22.26
2018-07-20T18:46:03.627Z,22.23
2018-07-20T18:48:33.930Z,22.15
2018-07-20T18:51:03.621Z,21.99
2018-07-20T18:53:33.188Z,21.89
2018-07-20T18:56:02.700Z,21.80
2018-07-20T18:58:32.886Z,21.78
2018-07-20T19:01:02.479Z,21.66
2018-07-20T19:03:31.841Z,21.61
2018-07-20T19:06:02.549Z,21.55
2018-07-20T19:08:32.856Z,21.40
2018-07-20T19:11:02.444Z,21.38
2018-07-20T19:13:32.199Z,21.47
2018-07-20T19:16:01.855Z,21.55
2018-07-20T19:18:31.406Z,21.11
2018-07-20T19:21:01.111Z,21.15
2018-07-20T19:23:30.694Z,21.07
2018-07-20T19:26:00.272Z,21.09
2018-07-20T19:28:30.657Z,21.13
2018-07-20T19:31:00.449Z,21.04
2018-07-20T19:33:29.969Z,20.98
2018-07-20T19:35:59.508Z,21.15
2018-07-20T19:38:29.666Z,21.04
2018-07-20T19:40:59.254Z,20.98
2018-07-20T19:43:28.679Z,20.98
2018-07-20T19:45:58.247Z,20.97
2018-07-20T19:48:27.409Z,20.77
2018-07-20T19:50:57.317Z,20.77
2018-07-20T19:53:26.577Z,20.59
2018-07-20T19:55:56.419Z,20.42
2018-07-20T19:58:25.856Z,20.42
2018-07-20T20:00:55.299Z,20.39
2018-07-20T20:03:24.829Z,20.20
2018-07-20T20:05:54.220Z,20.34
2018-07-20T20:08:24.827Z,20.40
2018-07-20T20:10:54.119Z,20.38
2018-07-20T20:13:23.341Z,20.22
2018-07-20T20:15:53.115Z,19.91
2018-07-20T20:18:23.114Z,19.91
2018-07-20T20:20:52.540Z,19.77
2018-07-20T20:23:22.510Z,19.74
2018-07-20T20:25:51.863Z,19.71
2018-07-20T20:28:21.434Z,19.89
2018-07-20T20:30:51.009Z,19.76
2018-07-20T20:33:20.532Z,19.73
2018-07-20T20:35:50.769Z,19.68
2018-07-20T20:38:20.043Z,19.72
2018-07-20T20:40:49.736Z,19.32
2018-07-20T20:43:19.223Z,19.46
2018-07-20T20:45:48.787Z,19.42
2018-07-20T20:48:19.070Z,19.43
2018-07-20T20:50:48.608Z,19.37
2018-07-20T20:53:18.122Z,19.48
2018-07-20T20:55:47.570Z,19.41
2018-07-20T20:58:17.821Z,19.37
2018-07-20T21:00:47.374Z,19.28
2018-07-20T21:03:16.849Z,19.28
2018-07-20T21:05:46.176Z,19.24
2018-07-20T21:08:16.521Z,19.24
2018-07-20T21:10:45.906Z,19.15
2018-07-20T21:13:15.187Z,19.16
2018-07-20T21:15:44.665Z,19.00
2018-07-20T21:18:15.189Z,19.01
2018-07-20T21:20:44.567Z,18.98
2018-07-20T21:23:13.818Z,18.93
2018-07-20T21:25:43.273Z,18.87
2018-07-20T21:28:12.656Z,18.87
2018-07-20T21:30:42.103Z,18.79
2018-07-20T21:33:11.495Z,18.70
2018-07-20T21:35:41.493Z,18.71
2018-07-20T21:38:10.886Z,18.63
2018-07-20T21:40:40.750Z,18.60
2018-07-20T21:43:10.242Z,18.50
2018-07-20T21:45:39.838Z,18.62
2018-07-20T21:48:10.821Z,18.48
2018-07-20T21:50:40.545Z,18.38
2018-07-20T21:53:10.360Z,18.54
2018-07-20T21:55:39.897Z,18.49
2018-07-20T21:58:09.452Z,18.37
2018-07-20T22:00:38.822Z,18.24
2018-07-20T22:03:09.136Z,18.23
2018-07-20T22:05:38.914Z,18.33
2018-07-20T22:08:08.370Z,18.13
2018-07-20T22:10:37.781Z,18.18
2018-07-20T22:13:07.303Z,18.10
2018-07-20T22:15:36.834Z,17.95
2018-07-20T22:18:06.467Z,17.98
2018-07-20T22:20:36.022Z,18.02
2018-07-20T22:23:05.423Z,18.17
2018-07-20T22:25:34.852Z,18.09
2018-07-20T22:28:04.325Z,17.95
2018-07-20T22:30:33.446Z,17.97
2018-07-20T22:33:02.871Z,18.01
2018-07-20T22:35:32.731Z,17.90
2018-07-20T22:38:01.884Z,17.69
2018-07-20T22:40:31.404Z,17.74
2018-07-20T22:43:00.811Z,17.82
2018-07-20T22:45:30.179Z,17.81
2018-07-20T22:48:02.332Z,17.57
2018-07-20T22:50:31.605Z,17.63
2018-07-20T22:53:00.995Z,17.68
2018-07-20T22:55:30.642Z,17.61
2018-07-20T22:58:00.018Z,17.39
2018-07-20T23:00:29.265Z,17.42
2018-07-20T23:02:58.568Z,17.61
2018-07-20T23:05:32.018Z,17.25
2018-07-20T23:08:01.586Z,17.08
2018-07-20T23:10:30.764Z,17.05
2018-07-20T23:13:00.167Z,17.17
2018-07-20T23:15:29.560Z,17.13
2018-07-20T23:17:58.958Z,17.17
2018-07-20T23:20:28.386Z,17.17
2018-07-20T23:22:59.021Z,17.00
2018-07-20T23:25:28.243Z,17.06
2018-07-20T23:27:57.605Z,17.27
2018-07-20T23:30:27.067Z,17.07
2018-07-20T23:32:56.491Z,17.09
2018-07-20T23:35:25.874Z,17.07
2018-07-20T23:37:55.341Z,16.98
2018-07-20T23:40:24.874Z,17.03
2018-07-20T23:42:54.271Z,17.09
2018-07-20T23:45:23.596Z,16.86
2018-07-20T23:47:53.026Z,16.87
2018-07-20T23:50:22.485Z,16.93
2018-07-20T23:52:51.811Z,16.85
2018-07-20T23:55:21.951Z,16.79
2018-07-20T23:57:51.472Z,16.73
